sensor_id;sensor_type;location;lat;lon;timestamp;pressure;altitude;pressure_sealevel;temperature;humidity
49709;BME280;35601;55.902;13.606;2023-09-30T00:01:17;100693.06;;;11.31;82.85
49709;BME280;35601;55.902;13.606;2023-09-30T00:03:42;100694.29;;;11.09;83.65
49709;BME280;35601;55.902;13.606;2023-09-30T00:06:08;100695.47;;;10.84;83.67
49709;BME280;35601;55.902;13.606;2023-09-30T00:08:33;100704.73;;;11.07;83.69
49709;BME280;35601;55.902;13.606;2023-09-30T00:10:59;100704.73;;;10.81;83.44
49709;BME280;35601;55.902;13.606;2023-09-30T00:13:24;100708.91;;;10.84;83.23
49709;BME280;35601;55.902;13.606;2023-09-30T00:15:50;100708.30;;;10.84;82.45
49709;BME280;35601;55.902;13.606;2023-09-30T00:18:15;100712.64;;;10.85;82.65
49709;BME280;35601;55.902;13.606;2023-09-30T00:20:40;100720.67;;;10.85;82.97
49709;BME280;35601;55.902;13.606;2023-09-30T00:23:06;100727.66;;;11.07;83.02
49709;BME280;35601;55.902;13.606;2023-09-30T00:25:31;100728.53;;;10.53;83.59
49709;BME280;35601;55.902;13.606;2023-09-30T00:27:56;100729.31;;;10.66;84.39
49709;BME280;35601;55.902;13.606;2023-09-30T00:30:21;100726.41;;;10.40;84.28
49709;BME280;35601;55.902;13.606;2023-09-30T00:32:47;100727.05;;;10.92;84.15
49709;BME280;35601;55.902;13.606;2023-09-30T00:35:12;100732.50;;;10.96;83.84
49709;BME280;35601;55.902;13.606;2023-09-30T00:37:37;100727.59;;;10.69;83.09
49709;BME280;35601;55.902;13.606;2023-09-30T00:40:03;100730.72;;;10.66;83.12
49709;BME280;35601;55.902;13.606;2023-09-30T00:42:28;100728.07;;;10.61;83.65
49709;BME280;35601;55.902;13.606;2023-09-30T00:44:53;100720.73;;;10.61;83.26
49709;BME280;35601;55.902;13.606;2023-09-30T00:47:19;100723.18;;;10.44;83.15
49709;BME280;35601;55.902;13.606;2023-09-30T00:49:44;100726.80;;;10.47;83.49
49709;BME280;35601;55.902;13.606;2023-09-30T00:52:10;100727.78;;;10.39;83.90
49709;BME280;35601;55.902;13.606;2023-09-30T00:54:35;100726.16;;;10.57;84.29
49709;BME280;35601;55.902;13.606;2023-09-30T00:57:01;100726.19;;;10.54;85.29
49709;BME280;35601;55.902;13.606;2023-09-30T00:59:26;100729.34;;;10.53;85.40
49709;BME280;35601;55.902;13.606;2023-09-30T01:01:51;100729.87;;;10.55;85.20
49709;BME280;35601;55.902;13.606;2023-09-30T01:04:16;100731.45;;;10.57;85.26
49709;BME280;35601;55.902;13.606;2023-09-30T01:06:42;100731.14;;;10.52;85.39
49709;BME280;35601;55.902;13.606;2023-09-30T01:09:07;100733.62;;;10.46;85.47
49709;BME280;35601;55.902;13.606;2023-09-30T01:11:33;100732.89;;;10.43;85.62
49709;BME280;35601;55.902;13.606;2023-09-30T01:13:58;100736.89;;;10.48;85.66
49709;BME280;35601;55.902;13.606;2023-09-30T01:16:24;100739.74;;;10.23;86.04
49709;BME280;35601;55.902;13.606;2023-09-30T01:18:49;100740.38;;;10.40;86.46
49709;BME280;35601;55.902;13.606;2023-09-30T01:21:14;100746.06;;;10.48;86.35
49709;BME280;35601;55.902;13.606;2023-09-30T01:23:39;100745.93;;;10.45;85.90
49709;BME280;35601;55.902;13.606;2023-09-30T01:26:07;100744.17;;;10.47;85.96
49709;BME280;35601;55.902;13.606;2023-09-30T01:28:29;100747.38;;;10.40;86.49
49709;BME280;35601;55.902;13.606;2023-09-30T01:30:55;100751.42;;;10.34;87.37
49709;BME280;35601;55.902;13.606;2023-09-30T01:33:20;100751.72;;;10.23;87.91
49709;BME280;35601;55.902;13.606;2023-09-30T01:35:45;100755.94;;;10.26;88.24
49709;BME280;35601;55.902;13.606;2023-09-30T01:38:11;100754.23;;;10.35;88.25
49709;BME280;35601;55.902;13.606;2023-09-30T01:40:36;100752.99;;;10.18;88.14
49709;BME280;35601;55.902;13.606;2023-09-30T01:43:01;100751.62;;;10.42;88.46
49709;BME280;35601;55.902;13.606;2023-09-30T01:45:27;100752.84;;;10.43;88.93
49709;BME280;35601;55.902;13.606;2023-09-30T01:47:52;100754.26;;;10.55;88.69
49709;BME280;35601;55.902;13.606;2023-09-30T01:50:18;100756.18;;;10.54;88.77
49709;BME280;35601;55.902;13.606;2023-09-30T01:52:43;100753.39;;;10.61;88.75
49709;BME280;35601;55.902;13.606;2023-09-30T01:55:09;100755.04;;;10.64;88.90
49709;BME280;35601;55.902;13.606;2023-09-30T01:57:34;100758.89;;;10.61;88.91
49709;BME280;35601;55.902;13.606;2023-09-30T01:59:59;100754.46;;;10.60;88.74
49709;BME280;35601;55.902;13.606;2023-09-30T02:02:25;100752.69;;;10.66;88.63
49709;BME280;35601;55.902;13.606;2023-09-30T02:04:50;100760.79;;;10.63;88.37
49709;BME280;35601;55.902;13.606;2023-09-30T02:07:16;100764.41;;;10.61;88.02
49709;BME280;35601;55.902;13.606;2023-09-30T02:09:41;100767.29;;;10.65;87.60
49709;BME280;35601;55.902;13.606;2023-09-30T02:12:06;100768.32;;;10.65;87.40
49709;BME280;35601;55.902;13.606;2023-09-30T02:14:32;100767.89;;;10.89;87.60
49709;BME280;35601;55.902;13.606;2023-09-30T02:16:57;100764.86;;;10.38;87.29
49709;BME280;35601;55.902;13.606;2023-09-30T02:19:23;100760.13;;;10.36;87.68
49709;BME280;35601;55.902;13.606;2023-09-30T02:21:49;100764.59;;;10.66;87.55
49709;BME280;35601;55.902;13.606;2023-09-30T02:24:14;100765.79;;;10.60;88.28
49709;BME280;35601;55.902;13.606;2023-09-30T02:26:40;100765.26;;;10.58;89.03
49709;BME280;35601;55.902;13.606;2023-09-30T02:29:05;100765.63;;;10.60;89.61
49709;BME280;35601;55.902;13.606;2023-09-30T02:31:31;100769.76;;;10.40;89.93
49709;BME280;35601;55.902;13.606;2023-09-30T02:33:56;100774.94;;;10.61;90.54
49709;BME280;35601;55.902;13.606;2023-09-30T02:36:22;100777.81;;;10.65;90.60
49709;BME280;35601;55.902;13.606;2023-09-30T02:38:47;100780.64;;;10.67;90.88
49709;BME280;35601;55.902;13.606;2023-09-30T02:41:12;100781.90;;;10.73;90.90
49709;BME280;35601;55.902;13.606;2023-09-30T02:43:37;100778.42;;;10.77;90.57
49709;BME280;35601;55.902;13.606;2023-09-30T02:46:03;100778.14;;;10.81;90.33
49709;BME280;35601;55.902;13.606;2023-09-30T02:48:29;100782.63;;;10.88;89.83
49709;BME280;35601;55.902;13.606;2023-09-30T02:50:53;100783.74;;;10.87;90.01
49709;BME280;35601;55.902;13.606;2023-09-30T02:53:18;100784.97;;;10.64;90.23
49709;BME280;35601;55.902;13.606;2023-09-30T02:55:44;100788.82;;;10.67;90.26
49709;BME280;35601;55.902;13.606;2023-09-30T02:58:11;100788.98;;;10.87;90.41
49709;BME280;35601;55.902;13.606;2023-09-30T03:00:35;100791.14;;;10.84;90.53
49709;BME280;35601;55.902;13.606;2023-09-30T03:03:02;100790.14;;;10.92;90.30
49709;BME280;35601;55.902;13.606;2023-09-30T03:05:27;100793.99;;;10.84;90.41
49709;BME280;35601;55.902;13.606;2023-09-30T03:07:51;100795.77;;;11.08;90.55
49709;BME280;35601;55.902;13.606;2023-09-30T03:10:17;100802.68;;;10.95;90.97
49709;BME280;35601;55.902;13.606;2023-09-30T03:12:43;100805.12;;;10.96;90.95
49709;BME280;35601;55.902;13.606;2023-09-30T03:15:08;100807.48;;;10.53;90.63
49709;BME280;35601;55.902;13.606;2023-09-30T03:17:33;100814.72;;;10.78;90.40
49709;BME280;35601;55.902;13.606;2023-09-30T03:19:59;100816.52;;;11.04;89.98
49709;BME280;35601;55.902;13.606;2023-09-30T03:22:24;100818.71;;;10.82;89.57
49709;BME280;35601;55.902;13.606;2023-09-30T03:24:50;100821.96;;;10.65;89.50
49709;BME280;35601;55.902;13.606;2023-09-30T03:27:15;100816.91;;;10.84;89.12
49709;BME280;35601;55.902;13.606;2023-09-30T03:29:40;100820.60;;;10.65;88.70
49709;BME280;35601;55.902;13.606;2023-09-30T03:32:05;100820.45;;;10.92;88.45
49709;BME280;35601;55.902;13.606;2023-09-30T03:34:30;100823.23;;;10.66;88.37
49709;BME280;35601;55.902;13.606;2023-09-30T03:36:56;100820.74;;;10.91;88.22
49709;BME280;35601;55.902;13.606;2023-09-30T03:39:21;100824.62;;;10.73;87.96
49709;BME280;35601;55.902;13.606;2023-09-30T03:41:46;100826.66;;;10.90;88.10
49709;BME280;35601;55.902;13.606;2023-09-30T03:44:11;100821.06;;;10.72;89.13
49709;BME280;35601;55.902;13.606;2023-09-30T03:46:37;100824.07;;;10.18;89.60
49709;BME280;35601;55.902;13.606;2023-09-30T03:49:03;100819.45;;;10.69;89.58
49709;BME280;35601;55.902;13.606;2023-09-30T03:51:28;100820.58;;;10.68;90.00
49709;BME280;35601;55.902;13.606;2023-09-30T03:53:53;100825.61;;;10.69;89.61
49709;BME280;35601;55.902;13.606;2023-09-30T03:56:18;100825.46;;;10.69;89.37
49709;BME280;35601;55.902;13.606;2023-09-30T03:58:44;100826.99;;;10.94;89.34
49709;BME280;35601;55.902;13.606;2023-09-30T04:01:09;100824.37;;;10.67;89.74
49709;BME280;35601;55.902;13.606;2023-09-30T04:03:34;100830.68;;;10.89;89.63
49709;BME280;35601;55.902;13.606;2023-09-30T04:05:59;100831.34;;;10.63;89.42
49709;BME280;35601;55.902;13.606;2023-09-30T04:08:24;100827.83;;;10.80;89.50
49709;BME280;35601;55.902;13.606;2023-09-30T04:10:49;100832.66;;;10.57;89.86
49709;BME280;35601;55.902;13.606;2023-09-30T04:13:15;100834.28;;;10.36;89.53
49709;BME280;35601;55.902;13.606;2023-09-30T04:15:40;100833.85;;;10.61;89.31
49709;BME280;35601;55.902;13.606;2023-09-30T04:18:05;100835.05;;;10.59;89.34
49709;BME280;35601;55.902;13.606;2023-09-30T04:20:31;100838.48;;;10.81;89.48
49709;BME280;35601;55.902;13.606;2023-09-30T04:22:56;100842.36;;;10.71;90.14
49709;BME280;35601;55.902;13.606;2023-09-30T04:25:22;100845.48;;;10.69;90.56
49709;BME280;35601;55.902;13.606;2023-09-30T04:27:47;100840.86;;;10.36;90.02
49709;BME280;35601;55.902;13.606;2023-09-30T04:30:12;100835.99;;;10.59;89.98
49709;BME280;35601;55.902;13.606;2023-09-30T04:32:38;100838.85;;;10.64;90.11
49709;BME280;35601;55.902;13.606;2023-09-30T04:35:03;100845.98;;;10.68;90.07
49709;BME280;35601;55.902;13.606;2023-09-30T04:37:28;100847.95;;;10.50;90.09
49709;BME280;35601;55.902;13.606;2023-09-30T04:39:54;100840.79;;;10.73;90.35
49709;BME280;35601;55.902;13.606;2023-09-30T04:42:19;100840.31;;;10.78;90.31
49709;BME280;35601;55.902;13.606;2023-09-30T04:44:45;100844.30;;;10.78;89.59
49709;BME280;35601;55.902;13.606;2023-09-30T04:47:10;100845.05;;;10.80;89.36
49709;BME280;35601;55.902;13.606;2023-09-30T04:49:36;100847.53;;;10.54;89.22
49709;BME280;35601;55.902;13.606;2023-09-30T04:52:01;100845.38;;;10.84;89.05
49709;BME280;35601;55.902;13.606;2023-09-30T04:54:26;100848.17;;;10.68;88.76
49709;BME280;35601;55.902;13.606;2023-09-30T04:56:52;100849.87;;;10.96;88.84
49709;BME280;35601;55.902;13.606;2023-09-30T04:59:17;100845.64;;;10.91;89.27
49709;BME280;35601;55.902;13.606;2023-09-30T05:01:42;100847.98;;;10.83;89.63
49709;BME280;35601;55.902;13.606;2023-09-30T05:04:07;100846.90;;;10.87;89.78
49709;BME280;35601;55.902;13.606;2023-09-30T05:06:32;100846.67;;;10.81;90.10
49709;BME280;35601;55.902;13.606;2023-09-30T05:08:57;100844.65;;;10.85;90.12
49709;BME280;35601;55.902;13.606;2023-09-30T05:11:23;100852.68;;;10.75;89.81
49709;BME280;35601;55.902;13.606;2023-09-30T05:13:48;100853.64;;;11.03;89.81
49709;BME280;35601;55.902;13.606;2023-09-30T05:16:13;100850.20;;;11.00;90.09
49709;BME280;35601;55.902;13.606;2023-09-30T05:18:39;100850.52;;;10.81;89.92
49709;BME280;35601;55.902;13.606;2023-09-30T05:21:04;100848.84;;;11.09;89.72
49709;BME280;35601;55.902;13.606;2023-09-30T05:23:29;100854.01;;;11.13;89.49
49709;BME280;35601;55.902;13.606;2023-09-30T05:25:55;100853.40;;;10.90;89.64
49709;BME280;35601;55.902;13.606;2023-09-30T05:28:20;100856.96;;;11.21;89.46
49709;BME280;35601;55.902;13.606;2023-09-30T05:30:45;100860.77;;;10.98;89.67
49709;BME280;35601;55.902;13.606;2023-09-30T05:33:10;100863.64;;;11.28;89.49
49709;BME280;35601;55.902;13.606;2023-09-30T05:35:35;100864.21;;;10.91;89.36
49709;BME280;35601;55.902;13.606;2023-09-30T05:38:00;100864.42;;;10.99;89.16
49709;BME280;35601;55.902;13.606;2023-09-30T05:40:26;100862.21;;;11.03;89.34
49709;BME280;35601;55.902;13.606;2023-09-30T05:42:52;100861.30;;;11.08;89.22
49709;BME280;35601;55.902;13.606;2023-09-30T05:45:17;100862.67;;;11.14;88.75
49709;BME280;35601;55.902;13.606;2023-09-30T05:47:42;100863.46;;;11.17;88.78
49709;BME280;35601;55.902;13.606;2023-09-30T05:50:08;100871.44;;;11.43;88.95
49709;BME280;35601;55.902;13.606;2023-09-30T05:52:33;100870.02;;;11.20;88.78
49709;BME280;35601;55.902;13.606;2023-09-30T05:54:59;100870.87;;;11.19;88.63
49709;BME280;35601;55.902;13.606;2023-09-30T05:57:24;100872.66;;;11.20;88.85
49709;BME280;35601;55.902;13.606;2023-09-30T05:59:49;100878.15;;;11.32;88.54
49709;BME280;35601;55.902;13.606;2023-09-30T06:02:15;100878.07;;;11.29;88.53
49709;BME280;35601;55.902;13.606;2023-09-30T06:04:40;100879.17;;;11.47;88.11
49709;BME280;35601;55.902;13.606;2023-09-30T06:07:05;100877.16;;;11.43;87.87
49709;BME280;35601;55.902;13.606;2023-09-30T06:09:31;100875.11;;;11.48;88.13
49709;BME280;35601;55.902;13.606;2023-09-30T06:11:56;100872.49;;;11.55;87.56
49709;BME280;35601;55.902;13.606;2023-09-30T06:14:21;100877.49;;;11.56;87.51
49709;BME280;35601;55.902;13.606;2023-09-30T06:16:46;100881.28;;;11.55;87.08
49709;BME280;35601;55.902;13.606;2023-09-30T06:19:12;100885.95;;;11.58;86.80
49709;BME280;35601;55.902;13.606;2023-09-30T06:21:37;100894.34;;;11.59;86.71
49709;BME280;35601;55.902;13.606;2023-09-30T06:24:02;100899.50;;;11.49;86.86
49709;BME280;35601;55.902;13.606;2023-09-30T06:26:27;100899.49;;;11.48;86.40
49709;BME280;35601;55.902;13.606;2023-09-30T06:28:53;100898.87;;;11.57;86.11
49709;BME280;35601;55.902;13.606;2023-09-30T06:31:18;100898.86;;;11.63;85.71
49709;BME280;35601;55.902;13.606;2023-09-30T06:33:43;100898.47;;;11.73;85.67
49709;BME280;35601;55.902;13.606;2023-09-30T06:36:09;100898.35;;;11.86;85.81
49709;BME280;35601;55.902;13.606;2023-09-30T06:38:34;100897.56;;;11.92;86.09
49709;BME280;35601;55.902;13.606;2023-09-30T06:41:00;100900.70;;;11.84;86.38
49709;BME280;35601;55.902;13.606;2023-09-30T06:43:25;100902.69;;;12.18;86.23
49709;BME280;35601;55.902;13.606;2023-09-30T06:45:50;100902.59;;;12.28;84.91
49709;BME280;35601;55.902;13.606;2023-09-30T06:48:16;100904.55;;;12.35;84.43
49709;BME280;35601;55.902;13.606;2023-09-30T06:50:44;100911.44;;;12.08;83.89
49709;BME280;35601;55.902;13.606;2023-09-30T06:53:06;100914.51;;;12.18;83.31
49709;BME280;35601;55.902;13.606;2023-09-30T06:55:32;100914.51;;;12.13;83.57
49709;BME280;35601;55.902;13.606;2023-09-30T06:57:57;100918.33;;;12.06;83.53
49709;BME280;35601;55.902;13.606;2023-09-30T07:00:23;100921.31;;;12.27;83.86
49709;BME280;35601;55.902;13.606;2023-09-30T07:02:48;100923.15;;;12.06;83.59
49709;BME280;35601;55.902;13.606;2023-09-30T07:05:14;100925.84;;;12.38;83.86
49709;BME280;35601;55.902;13.606;2023-09-30T07:07:39;100925.76;;;12.15;83.64
49709;BME280;35601;55.902;13.606;2023-09-30T07:10:06;100919.62;;;12.36;84.58
49709;BME280;35601;55.902;13.606;2023-09-30T07:12:30;100924.16;;;12.12;84.27
49709;BME280;35601;55.902;13.606;2023-09-30T07:14:55;100924.97;;;12.34;84.08
49709;BME280;35601;55.902;13.606;2023-09-30T07:17:21;100926.21;;;12.17;84.34
49709;BME280;35601;55.902;13.606;2023-09-30T07:19:46;100929.66;;;12.49;84.38
49709;BME280;35601;55.902;13.606;2023-09-30T07:22:12;100926.18;;;12.39;83.78
49709;BME280;35601;55.902;13.606;2023-09-30T07:24:37;100929.18;;;12.54;82.96
49709;BME280;35601;55.902;13.606;2023-09-30T07:27:02;100930.00;;;12.54;83.01
49709;BME280;35601;55.902;13.606;2023-09-30T07:29:27;100930.16;;;12.65;82.88
49709;BME280;35601;55.902;13.606;2023-09-30T07:31:52;100937.84;;;12.34;82.96
49709;BME280;35601;55.902;13.606;2023-09-30T07:34:17;100933.51;;;12.41;81.59
49709;BME280;35601;55.902;13.606;2023-09-30T07:36:42;100935.21;;;12.95;83.13
49709;BME280;35601;55.902;13.606;2023-09-30T07:39:08;100938.15;;;12.80;82.01
49709;BME280;35601;55.902;13.606;2023-09-30T07:41:34;100939.93;;;12.61;81.90
49709;BME280;35601;55.902;13.606;2023-09-30T07:43:58;100940.45;;;12.96;82.13
49709;BME280;35601;55.902;13.606;2023-09-30T07:46:23;100945.09;;;12.91;81.96
49709;BME280;35601;55.902;13.606;2023-09-30T07:48:49;100943.55;;;13.01;81.65
49709;BME280;35601;55.902;13.606;2023-09-30T07:51:14;100945.67;;;12.95;81.06
49709;BME280;35601;55.902;13.606;2023-09-30T07:53:40;100948.02;;;12.88;81.57
49709;BME280;35601;55.902;13.606;2023-09-30T07:56:05;100952.54;;;12.96;80.60
49709;BME280;35601;55.902;13.606;2023-09-30T07:58:31;100950.02;;;13.20;80.92
49709;BME280;35601;55.902;13.606;2023-09-30T08:00:55;100944.36;;;13.04;80.89
49709;BME280;35601;55.902;13.606;2023-09-30T08:03:21;100946.09;;;13.17;80.56
49709;BME280;35601;55.902;13.606;2023-09-30T08:05:46;100949.56;;;13.05;80.14
49709;BME280;35601;55.902;13.606;2023-09-30T08:08:11;100943.61;;;13.03;79.06
49709;BME280;35601;55.902;13.606;2023-09-30T08:10:36;100952.17;;;13.35;80.02
49709;BME280;35601;55.902;13.606;2023-09-30T08:13:03;100952.16;;;13.54;79.20
49709;BME280;35601;55.902;13.606;2023-09-30T08:15:27;100947.52;;;13.57;79.43
49709;BME280;35601;55.902;13.606;2023-09-30T08:17:52;100953.36;;;13.05;77.73
49709;BME280;35601;55.902;13.606;2023-09-30T08:20:17;100951.97;;;13.09;77.53
49709;BME280;35601;55.902;13.606;2023-09-30T08:22:42;100955.08;;;13.27;78.20
49709;BME280;35601;55.902;13.606;2023-09-30T08:25:08;100962.48;;;13.64;76.93
49709;BME280;35601;55.902;13.606;2023-09-30T08:27:32;100955.63;;;13.57;77.34
49709;BME280;35601;55.902;13.606;2023-09-30T08:29:57;100954.33;;;13.63;78.31
49709;BME280;35601;55.902;13.606;2023-09-30T08:32:22;100958.21;;;13.57;77.98
49709;BME280;35601;55.902;13.606;2023-09-30T08:34:47;100964.84;;;13.51;79.01
49709;BME280;35601;55.902;13.606;2023-09-30T08:37:13;100968.39;;;13.37;78.60
49709;BME280;35601;55.902;13.606;2023-09-30T08:39:38;100965.16;;;13.22;79.92
49709;BME280;35601;55.902;13.606;2023-09-30T08:42:05;100968.84;;;13.20;79.97
49709;BME280;35601;55.902;13.606;2023-09-30T08:44:29;100971.54;;;13.39;80.30
49709;BME280;35601;55.902;13.606;2023-09-30T08:46:54;100976.98;;;13.43;80.59
49709;BME280;35601;55.902;13.606;2023-09-30T08:49:20;100976.64;;;13.57;81.71
49709;BME280;35601;55.902;13.606;2023-09-30T08:51:45;100979.50;;;13.56;80.37
49709;BME280;35601;55.902;13.606;2023-09-30T08:54:10;100981.07;;;13.67;80.33
49709;BME280;35601;55.902;13.606;2023-09-30T08:56:36;100979.27;;;13.70;79.66
49709;BME280;35601;55.902;13.606;2023-09-30T08:59:01;100978.73;;;13.95;80.20
49709;BME280;35601;55.902;13.606;2023-09-30T09:01:26;100978.17;;;13.97;79.85
49709;BME280;35601;55.902;13.606;2023-09-30T09:03:50;100981.24;;;13.96;78.67
49709;BME280;35601;55.902;13.606;2023-09-30T09:06:15;100970.31;;;14.09;77.73
49709;BME280;35601;55.902;13.606;2023-09-30T09:08:40;100974.60;;;14.33;77.61
49709;BME280;35601;55.902;13.606;2023-09-30T09:11:06;100979.53;;;14.38;76.60
49709;BME280;35601;55.902;13.606;2023-09-30T09:13:47;100984.59;;;14.22;75.21
49709;BME280;35601;55.902;13.606;2023-09-30T09:16:07;100989.10;;;14.36;76.58
49709;BME280;35601;55.902;13.606;2023-09-30T09:18:30;100979.71;;;14.49;76.06
49709;BME280;35601;55.902;13.606;2023-09-30T09:20:47;100978.02;;;13.65;75.72
49709;BME280;35601;55.902;13.606;2023-09-30T09:23:14;100974.26;;;14.55;75.73
49709;BME280;35601;55.902;13.606;2023-09-30T09:25:38;100977.00;;;14.41;75.01
49709;BME280;35601;55.902;13.606;2023-09-30T09:28:02;100975.04;;;14.67;74.27
49709;BME280;35601;55.902;13.606;2023-09-30T09:30:27;100979.25;;;14.41;73.95
49709;BME280;35601;55.902;13.606;2023-09-30T09:32:54;100984.33;;;14.63;74.13
49709;BME280;35601;55.902;13.606;2023-09-30T09:35:20;100978.08;;;14.76;74.65
49709;BME280;35601;55.902;13.606;2023-09-30T09:37:43;100972.76;;;14.61;72.44
49709;BME280;35601;55.902;13.606;2023-09-30T09:40:08;100973.04;;;14.92;74.16
49709;BME280;35601;55.902;13.606;2023-09-30T09:42:33;100975.90;;;14.76;74.79
49709;BME280;35601;55.902;13.606;2023-09-30T09:45:00;100974.82;;;14.82;71.17
49709;BME280;35601;55.902;13.606;2023-09-30T09:47:24;100981.07;;;15.30;72.08
49709;BME280;35601;55.902;13.606;2023-09-30T09:49:50;100983.39;;;15.27;69.16
49709;BME280;35601;55.902;13.606;2023-09-30T09:52:15;100978.38;;;15.40;68.68
49709;BME280;35601;55.902;13.606;2023-09-30T09:54:40;100983.53;;;15.37;68.35
49709;BME280;35601;55.902;13.606;2023-09-30T09:57:06;100982.95;;;15.53;63.74
49709;BME280;35601;55.902;13.606;2023-09-30T09:59:30;100987.55;;;15.31;62.17
49709;BME280;35601;55.902;13.606;2023-09-30T10:01:55;100980.96;;;15.70;63.85
49709;BME280;35601;55.902;13.606;2023-09-30T10:04:19;100982.55;;;15.99;64.87
49709;BME280;35601;55.902;13.606;2023-09-30T10:06:46;100988.95;;;16.35;62.74
49709;BME280;35601;55.902;13.606;2023-09-30T10:09:11;100991.88;;;16.41;60.97
49709;BME280;35601;55.902;13.606;2023-09-30T10:11:36;100992.40;;;16.36;60.45
49709;BME280;35601;55.902;13.606;2023-09-30T10:14:00;100998.66;;;16.04;61.35
49709;BME280;35601;55.902;13.606;2023-09-30T10:21:17;101000.69;;;16.06;61.69
49709;BME280;35601;55.902;13.606;2023-09-30T10:23:41;101014.84;;;16.01;61.30
49709;BME280;35601;55.902;13.606;2023-09-30T10:26:15;101012.55;;;16.32;59.47
49709;BME280;35601;55.902;13.606;2023-09-30T10:28:36;101012.87;;;16.18;58.66
49709;BME280;35601;55.902;13.606;2023-09-30T10:31:10;101014.66;;;15.93;59.49
49709;BME280;35601;55.902;13.606;2023-09-30T10:33:21;101020.69;;;15.80;60.23
49709;BME280;35601;55.902;13.606;2023-09-30T10:35:48;101019.76;;;15.59;61.48
49709;BME280;35601;55.902;13.606;2023-09-30T10:40:37;101011.85;;;16.32;61.24
49709;BME280;35601;55.902;13.606;2023-09-30T10:43:02;101013.40;;;16.22;60.83
49709;BME280;35601;55.902;13.606;2023-09-30T10:45:43;101010.16;;;16.83;60.95
49709;BME280;35601;55.902;13.606;2023-09-30T10:47:52;101011.06;;;16.64;58.02
49709;BME280;35601;55.902;13.606;2023-09-30T10:52:42;101017.43;;;16.07;57.17
49709;BME280;35601;55.902;13.606;2023-09-30T10:55:08;101018.69;;;15.95;59.91
49709;BME280;35601;55.902;13.606;2023-09-30T10:57:33;101022.89;;;16.04;60.31
49709;BME280;35601;55.902;13.606;2023-09-30T11:00:08;101026.82;;;16.34;59.08
49709;BME280;35601;55.902;13.606;2023-09-30T11:02:23;101035.20;;;16.37;57.79
49709;BME280;35601;55.902;13.606;2023-09-30T11:04:48;101028.67;;;16.68;59.70
49709;BME280;35601;55.902;13.606;2023-09-30T11:07:19;101027.56;;;16.07;63.41
49709;BME280;35601;55.902;13.606;2023-09-30T11:09:39;101025.85;;;16.00;65.81
49709;BME280;35601;55.902;13.606;2023-09-30T11:12:13;101027.86;;;15.36;65.79
49709;BME280;35601;55.902;13.606;2023-09-30T11:14:31;101028.33;;;15.45;65.62
49709;BME280;35601;55.902;13.606;2023-09-30T11:16:55;101039.53;;;14.90;65.18
49709;BME280;35601;55.902;13.606;2023-09-30T11:19:20;101036.55;;;14.72;63.84
49709;BME280;35601;55.902;13.606;2023-09-30T11:21:44;101037.45;;;15.21;66.59
49709;BME280;35601;55.902;13.606;2023-09-30T11:24:10;101037.02;;;14.96;67.76
49709;BME280;35601;55.902;13.606;2023-09-30T11:26:35;101040.01;;;15.04;66.47
49709;BME280;35601;55.902;13.606;2023-09-30T11:29:05;101038.53;;;14.80;67.17
49709;BME280;35601;55.902;13.606;2023-09-30T11:31:28;101040.42;;;14.40;67.86
49709;BME280;35601;55.902;13.606;2023-09-30T11:33:51;101040.43;;;14.65;68.49
49709;BME280;35601;55.902;13.606;2023-09-30T11:36:16;101043.95;;;14.88;67.84
49709;BME280;35601;55.902;13.606;2023-09-30T11:38:45;101035.10;;;15.05;67.63
49709;BME280;35601;55.902;13.606;2023-09-30T11:41:06;101035.96;;;15.00;67.84
49709;BME280;35601;55.902;13.606;2023-09-30T11:43:31;101035.71;;;15.64;66.22
49709;BME280;35601;55.902;13.606;2023-09-30T11:46:05;101038.40;;;15.55;65.97
49709;BME280;35601;55.902;13.606;2023-09-30T11:48:21;101034.80;;;15.93;63.43
49709;BME280;35601;55.902;13.606;2023-09-30T11:50:47;101040.87;;;15.75;63.84
49709;BME280;35601;55.902;13.606;2023-09-30T11:53:16;101045.62;;;16.20;59.17
49709;BME280;35601;55.902;13.606;2023-09-30T11:55:37;101046.88;;;15.98;57.42
49709;BME280;35601;55.902;13.606;2023-09-30T11:58:02;101053.41;;;15.54;56.75
49709;BME280;35601;55.902;13.606;2023-09-30T12:00:27;101053.75;;;15.81;56.79
49709;BME280;35601;55.902;13.606;2023-09-30T12:02:52;101044.29;;;15.73;56.86
49709;BME280;35601;55.902;13.606;2023-09-30T12:05:17;101057.10;;;15.77;56.12
49709;BME280;35601;55.902;13.606;2023-09-30T12:07:43;101053.54;;;15.78;54.71
49709;BME280;35601;55.902;13.606;2023-09-30T12:10:08;101052.20;;;15.80;55.50
49709;BME280;35601;55.902;13.606;2023-09-30T12:12:33;101049.66;;;15.96;57.03
49709;BME280;35601;55.902;13.606;2023-09-30T12:14:58;101052.76;;;15.95;56.40
49709;BME280;35601;55.902;13.606;2023-09-30T12:17:23;101054.50;;;15.87;56.92
49709;BME280;35601;55.902;13.606;2023-09-30T12:19:49;101051.41;;;15.92;55.53
49709;BME280;35601;55.902;13.606;2023-09-30T12:22:13;101046.40;;;16.14;56.72
49709;BME280;35601;55.902;13.606;2023-09-30T12:24:39;101047.70;;;15.98;57.33
49709;BME280;35601;55.902;13.606;2023-09-30T12:27:04;101045.96;;;16.09;56.52
49709;BME280;35601;55.902;13.606;2023-09-30T12:29:29;101052.84;;;16.23;56.75
49709;BME280;35601;55.902;13.606;2023-09-30T12:31:55;101043.03;;;16.31;55.90
49709;BME280;35601;55.902;13.606;2023-09-30T12:34:20;101043.78;;;16.03;54.79
49709;BME280;35601;55.902;13.606;2023-09-30T12:36:45;101038.22;;;16.29;55.24
49709;BME280;35601;55.902;13.606;2023-09-30T12:39:11;101044.84;;;16.38;55.13